Aérodrome :
LOGIN :

S'inscrire | Disclaimer

   EN    FR    IT 

 










Légende :    VFR   VFR Marginal   IFR   IFR Intensif   IFR Très Intensif
Visi : 
Plafond : 
>= 8 km
>= 3000ft
5 à 8 km
1000 à 3000 ft
1500m à 5 km
500 à 1000 ft
800 à 1500m
200 à 500 ft
< 800m
< 200 ft
Symboles :   Orages  Brouillard  Fortes neiges  Fortes précipitations  Vent > 20 kt
SIGMETs :   Divers  Orages  Givrage  Turbulence  Onde Orograph.  Cendres Volcan.






- Altitude de l'aérodrome : 755 ft
- Code IATA : KSC


LZKZ - Kosice

DERNIER METAR :
  • 302300Z 03008KT 9999 SCT022 BKN040 12/11 Q1005

METARs EXPIRÉS :
  • 302230Z 04007KT 9999 BKN022 12/11 Q1005
  • 302200Z 03003KT 310V060 9999 BKN022 12/11 Q1005
  • 302130Z 35002KT 9999 SCT023 SCT070 11/10 Q1005
  • 302100Z 36008KT 9999 FEW025 SCT070 13/10 Q1005
  • 302030Z 01007KT 9999 SCT024 BKN050 13/11 Q1006

TAF TAF LZKZ
Valide du 30 à 18h jusqu'au 01 à 18h UTC


301700Z 3018/0118 18004KT 9999 SCT015 BKN035
BECMG 3018/3020 01010KT
BECMG 0107/0109 VRB02KT -RA BKN014 OVC030
TEMPO 0110/0115 5000 RA BKN007 OVC030
PROB30
TEMPO 0115/0118 17005KT 2000 -RADZ OVC003



MET'MAP, la Météo Aéronautique d'un coup d'oeil ! - Copyright ORBIFLY Décembre 2007 - Disclaimer

ORBIFLY MET'MAP TEAM :

Programmation & Développement : Alexandra Zaïnal
Sur une idée originale de : Baudouin d'Aumeries
Assistance à la programmation : Marc-Olivier Méhu
Soutien technique & logistique : Manuel Goepfert

Contact : metmap@orbifly.com




SOURCES & CREDITS :

   NOAA